sensor_id;sensor_type;location;lat;lon;timestamp;pressure;altitude;pressure_sealevel;temperature;humidity
10008;BME280;5043;41.766;26.204;2024-03-06T00:00:40;100738.09;;;8.73;100.00
10008;BME280;5043;41.766;26.204;2024-03-06T00:03:06;100758.09;;;8.75;100.00
10008;BME280;5043;41.766;26.204;2024-03-06T00:05:31;100758.09;;;8.75;100.00
10008;BME280;5043;41.766;26.204;2024-03-06T00:07:57;100764.84;;;8.79;100.00
10008;BME280;5043;41.766;26.204;2024-03-06T00:10:22;100758.22;;;8.74;100.00
10008;BME280;5043;41.766;26.204;2024-03-06T00:12:48;100772.94;;;8.76;100.00
10008;BME280;5043;41.766;26.204;2024-03-06T00:15:14;100773.03;;;8.75;100.00
10008;BME280;5043;41.766;26.204;2024-03-06T00:17:39;100775.94;;;8.70;100.00
10008;BME280;5043;41.766;26.204;2024-03-06T00:20:05;100776.25;;;8.66;100.00
10008;BME280;5043;41.766;26.204;2024-03-06T00:22:31;100756.81;;;8.54;100.00
10008;BME280;5043;41.766;26.204;2024-03-06T00:24:57;100779.28;;;8.60;100.00
10008;BME280;5043;41.766;26.204;2024-03-06T00:27:22;100772.22;;;8.60;100.00
10008;BME280;5043;41.766;26.204;2024-03-06T00:29:47;100780.31;;;8.57;100.00
10008;BME280;5043;41.766;26.204;2024-03-06T00:32:14;100778.03;;;8.51;100.00
10008;BME280;5043;41.766;26.204;2024-03-06T00:34:40;100773.06;;;8.47;100.00
10008;BME280;5043;41.766;26.204;2024-03-06T00:37:05;100806.41;;;8.46;100.00
10008;BME280;5043;41.766;26.204;2024-03-06T00:39:30;100769.22;;;8.38;100.00
10008;BME280;5043;41.766;26.204;2024-03-06T00:41:56;100711.97;;;8.01;100.00
10008;BME280;5043;41.766;26.204;2024-03-06T00:44:21;100778.44;;;8.31;100.00
10008;BME280;5043;41.766;26.204;2024-03-06T00:46:47;100803.50;;;8.37;100.00
10008;BME280;5043;41.766;26.204;2024-03-06T00:49:12;100791.19;;;8.37;100.00
10008;BME280;5043;41.766;26.204;2024-03-06T00:51:38;100736.34;;;8.03;100.00
10008;BME280;5043;41.766;26.204;2024-03-06T00:54:04;100790.25;;;8.38;100.00
10008;BME280;5043;41.766;26.204;2024-03-06T00:56:29;100792.03;;;8.38;100.00
10008;BME280;5043;41.766;26.204;2024-03-06T00:58:56;100791.75;;;8.42;100.00
10008;BME280;5043;41.766;26.204;2024-03-06T01:01:21;100781.81;;;8.33;100.00
10008;BME280;5043;41.766;26.204;2024-03-06T01:03:47;100802.72;;;8.49;100.00
10008;BME280;5043;41.766;26.204;2024-03-06T01:06:12;100763.59;;;8.30;100.00
10008;BME280;5043;41.766;26.204;2024-03-06T01:08:38;100806.59;;;8.57;100.00
10008;BME280;5043;41.766;26.204;2024-03-06T01:11:03;100810.81;;;8.60;100.00
10008;BME280;5043;41.766;26.204;2024-03-06T01:13:30;100801.97;;;8.61;100.00
10008;BME280;5043;41.766;26.204;2024-03-06T01:15:55;100806.03;;;8.66;100.00
10008;BME280;5043;41.766;26.204;2024-03-06T01:18:21;100813.25;;;8.63;100.00
10008;BME280;5043;41.766;26.204;2024-03-06T01:20:46;100788.38;;;8.54;100.00
10008;BME280;5043;41.766;26.204;2024-03-06T01:23:11;100788.94;;;8.59;100.00
10008;BME280;5043;41.766;26.204;2024-03-06T01:25:37;100811.84;;;8.71;100.00
10008;BME280;5043;41.766;26.204;2024-03-06T01:28:02;100785.56;;;8.57;100.00
10008;BME280;5043;41.766;26.204;2024-03-06T01:30:28;100812.97;;;8.67;100.00
10008;BME280;5043;41.766;26.204;2024-03-06T01:32:53;100814.84;;;8.65;100.00
10008;BME280;5043;41.766;26.204;2024-03-06T01:35:19;100818.03;;;8.70;100.00
10008;BME280;5043;41.766;26.204;2024-03-06T01:37:44;100817.47;;;8.65;100.00
10008;BME280;5043;41.766;26.204;2024-03-06T01:40:11;100821.69;;;8.68;100.00
10008;BME280;5043;41.766;26.204;2024-03-06T01:42:37;100823.69;;;8.64;100.00
10008;BME280;5043;41.766;26.204;2024-03-06T01:45:03;100823.13;;;8.59;100.00
10008;BME280;5043;41.766;26.204;2024-03-06T01:47:29;100822.09;;;8.62;100.00
10008;BME280;5043;41.766;26.204;2024-03-06T01:49:55;100830.59;;;8.65;100.00
10008;BME280;5043;41.766;26.204;2024-03-06T01:52:21;100831.47;;;8.66;100.00
10008;BME280;5043;41.766;26.204;2024-03-06T01:54:48;100832.59;;;8.62;100.00
10008;BME280;5043;41.766;26.204;2024-03-06T01:57:15;100822.44;;;8.56;100.00
10008;BME280;5043;41.766;26.204;2024-03-06T01:59:43;100826.31;;;8.50;100.00
10008;BME280;5043;41.766;26.204;2024-03-06T02:02:08;100843.47;;;8.56;100.00
10008;BME280;5043;41.766;26.204;2024-03-06T02:04:39;100835.97;;;8.50;100.00
10008;BME280;5043;41.766;26.204;2024-03-06T02:07:09;100857.69;;;8.53;100.00
10008;BME280;5043;41.766;26.204;2024-03-06T02:09:37;100850.44;;;8.57;100.00
10008;BME280;5043;41.766;26.204;2024-03-06T02:12:03;100870.56;;;8.58;100.00
10008;BME280;5043;41.766;26.204;2024-03-06T02:14:29;100861.06;;;8.55;100.00
10008;BME280;5043;41.766;26.204;2024-03-06T02:16:54;100874.09;;;8.57;100.00
10008;BME280;5043;41.766;26.204;2024-03-06T02:19:20;100850.91;;;8.49;100.00
10008;BME280;5043;41.766;26.204;2024-03-06T02:21:45;100863.19;;;8.63;100.00
10008;BME280;5043;41.766;26.204;2024-03-06T02:24:11;100869.13;;;8.66;100.00
10008;BME280;5043;41.766;26.204;2024-03-06T02:26:38;100846.59;;;8.62;100.00
10008;BME280;5043;41.766;26.204;2024-03-06T02:29:03;100860.03;;;8.72;100.00
10008;BME280;5043;41.766;26.204;2024-03-06T02:31:31;100850.16;;;8.61;100.00
10008;BME280;5043;41.766;26.204;2024-03-06T02:33:57;100869.31;;;8.77;100.00
10008;BME280;5043;41.766;26.204;2024-03-06T02:36:24;100865.66;;;8.80;100.00
10008;BME280;5043;41.766;26.204;2024-03-06T02:38:49;100869.13;;;8.80;100.00
10008;BME280;5043;41.766;26.204;2024-03-06T02:41:15;100877.75;;;8.82;100.00
10008;BME280;5043;41.766;26.204;2024-03-06T02:43:41;100872.78;;;8.78;100.00
10008;BME280;5043;41.766;26.204;2024-03-06T02:46:07;100874.84;;;8.73;100.00
10008;BME280;5043;41.766;26.204;2024-03-06T02:48:32;100885.03;;;8.79;100.00
10008;BME280;5043;41.766;26.204;2024-03-06T02:50:58;100843.47;;;8.56;100.00
10008;BME280;5043;41.766;26.204;2024-03-06T02:53:23;100881.34;;;8.81;100.00
10008;BME280;5043;41.766;26.204;2024-03-06T02:55:50;100882.91;;;8.84;100.00
10008;BME280;5043;41.766;26.204;2024-03-06T02:58:16;100911.09;;;8.82;100.00
10008;BME280;5043;41.766;26.204;2024-03-06T03:00:44;100898.81;;;8.82;100.00
10008;BME280;5043;41.766;26.204;2024-03-06T03:03:10;100893.38;;;8.85;100.00
10008;BME280;5043;41.766;26.204;2024-03-06T03:05:39;100855.06;;;8.67;100.00
10008;BME280;5043;41.766;26.204;2024-03-06T03:08:06;100890.44;;;8.90;100.00
10008;BME280;5043;41.766;26.204;2024-03-06T03:10:31;100900.13;;;8.89;100.00
10008;BME280;5043;41.766;26.204;2024-03-06T03:12:57;100883.78;;;8.84;100.00
10008;BME280;5043;41.766;26.204;2024-03-06T03:15:22;100896.91;;;8.98;100.00
10008;BME280;5043;41.766;26.204;2024-03-06T03:17:48;100901.72;;;8.92;100.00
10008;BME280;5043;41.766;26.204;2024-03-06T03:20:13;100895.81;;;8.88;100.00
10008;BME280;5043;41.766;26.204;2024-03-06T03:22:42;100905.19;;;8.92;100.00
10008;BME280;5043;41.766;26.204;2024-03-06T03:25:12;100897.50;;;8.89;100.00
10008;BME280;5043;41.766;26.204;2024-03-06T03:27:40;100886.22;;;8.73;100.00
10008;BME280;5043;41.766;26.204;2024-03-06T03:30:10;100888.28;;;8.68;100.00
10008;BME280;5043;41.766;26.204;2024-03-06T03:32:36;100904.34;;;8.78;100.00
10008;BME280;5043;41.766;26.204;2024-03-06T03:35:04;100896.91;;;8.70;100.00
10008;BME280;5043;41.766;26.204;2024-03-06T03:37:30;100900.59;;;8.68;100.00
10008;BME280;5043;41.766;26.204;2024-03-06T03:39:56;100886.78;;;8.50;100.00
10008;BME280;5043;41.766;26.204;2024-03-06T03:42:21;100898.44;;;8.60;100.00
10008;BME280;5043;41.766;26.204;2024-03-06T03:44:47;100869.50;;;8.46;100.00
10008;BME280;5043;41.766;26.204;2024-03-06T03:47:12;100901.81;;;8.62;100.00
10008;BME280;5043;41.766;26.204;2024-03-06T03:49:38;100907.84;;;8.64;100.00
10008;BME280;5043;41.766;26.204;2024-03-06T03:52:03;100907.56;;;8.69;100.00
10008;BME280;5043;41.766;26.204;2024-03-06T03:54:29;100911.69;;;8.73;100.00
10008;BME280;5043;41.766;26.204;2024-03-06T03:56:54;100896.91;;;8.70;100.00
10008;BME280;5043;41.766;26.204;2024-03-06T03:59:20;100919.28;;;8.77;100.00
10008;BME280;5043;41.766;26.204;2024-03-06T04:01:45;100919.75;;;8.84;100.00
10008;BME280;5043;41.766;26.204;2024-03-06T04:04:14;100913.75;;;8.82;100.00
10008;BME280;5043;41.766;26.204;2024-03-06T04:06:39;100918.53;;;8.89;100.00
10008;BME280;5043;41.766;26.204;2024-03-06T04:09:05;100917.78;;;8.87;100.00
10008;BME280;5043;41.766;26.204;2024-03-06T04:11:30;100918.34;;;8.92;100.00
10008;BME280;5043;41.766;26.204;2024-03-06T04:13:59;100924.38;;;8.80;100.00
10008;BME280;5043;41.766;26.204;2024-03-06T04:16:24;100938.72;;;8.89;100.00
10008;BME280;5043;41.766;26.204;2024-03-06T04:18:50;100932.16;;;8.82;100.00
10008;BME280;5043;41.766;26.204;2024-03-06T04:21:15;100933.84;;;8.83;100.00
10008;BME280;5043;41.766;26.204;2024-03-06T04:23:43;100932.81;;;8.71;100.00
10008;BME280;5043;41.766;26.204;2024-03-06T04:26:08;100926.03;;;8.53;100.00
10008;BME280;5043;41.766;26.204;2024-03-06T04:28:34;100910.28;;;8.53;100.00
10008;BME280;5043;41.766;26.204;2024-03-06T04:30:59;100916.28;;;8.55;100.00
10008;BME280;5043;41.766;26.204;2024-03-06T04:33:24;100943.34;;;8.71;100.00
10008;BME280;5043;41.766;26.204;2024-03-06T04:35:50;100934.59;;;8.71;100.00
10008;BME280;5043;41.766;26.204;2024-03-06T04:38:15;100865.34;;;8.28;100.00
10008;BME280;5043;41.766;26.204;2024-03-06T04:40:41;100911.84;;;8.56;100.00
10008;BME280;5043;41.766;26.204;2024-03-06T04:43:06;100942.59;;;8.69;100.00
10008;BME280;5043;41.766;26.204;2024-03-06T04:45:32;100947.75;;;8.71;100.00
10008;BME280;5043;41.766;26.204;2024-03-06T04:47:58;100954.03;;;8.68;100.00
10008;BME280;5043;41.766;26.204;2024-03-06T04:50:23;100943.16;;;8.60;100.00
10008;BME280;5043;41.766;26.204;2024-03-06T04:52:49;100946.88;;;8.56;100.00
10008;BME280;5043;41.766;26.204;2024-03-06T04:55:14;100871.84;;;8.07;100.00
10008;BME280;5043;41.766;26.204;2024-03-06T04:57:45;100951.84;;;8.47;100.00
10008;BME280;5043;41.766;26.204;2024-03-06T05:00:11;100922.41;;;8.26;100.00
10008;BME280;5043;41.766;26.204;2024-03-06T05:02:38;100952.31;;;8.39;100.00
10008;BME280;5043;41.766;26.204;2024-03-06T05:05:04;100962.88;;;8.38;100.00
10008;BME280;5043;41.766;26.204;2024-03-06T05:07:31;100963.75;;;8.38;100.00
10008;BME280;5043;41.766;26.204;2024-03-06T05:09:57;100966.53;;;8.35;100.00
10008;BME280;5043;41.766;26.204;2024-03-06T05:12:24;100975.97;;;8.39;100.00
10008;BME280;5043;41.766;26.204;2024-03-06T05:14:50;100973.81;;;8.46;100.00
10008;BME280;5043;41.766;26.204;2024-03-06T05:17:16;100985.94;;;8.48;100.00
10008;BME280;5043;41.766;26.204;2024-03-06T05:19:43;100982.34;;;8.49;100.00
10008;BME280;5043;41.766;26.204;2024-03-06T05:22:10;100977.09;;;8.49;100.00
10008;BME280;5043;41.766;26.204;2024-03-06T05:24:37;100981.00;;;8.58;100.00
10008;BME280;5043;41.766;26.204;2024-03-06T05:27:02;100989.56;;;8.75;100.00
10008;BME280;5043;41.766;26.204;2024-03-06T05:29:28;100987.50;;;8.80;100.00
10008;BME280;5043;41.766;26.204;2024-03-06T05:31:53;100989.41;;;8.92;100.00
10008;BME280;5043;41.766;26.204;2024-03-06T05:34:20;100968.69;;;8.86;100.00
10008;BME280;5043;41.766;26.204;2024-03-06T05:36:45;100990.16;;;9.09;100.00
10008;BME280;5043;41.766;26.204;2024-03-06T05:39:11;100994.09;;;9.16;100.00
10008;BME280;5043;41.766;26.204;2024-03-06T05:41:41;100989.13;;;9.11;100.00
10008;BME280;5043;41.766;26.204;2024-03-06T05:44:07;100968.06;;;9.11;100.00
10008;BME280;5043;41.766;26.204;2024-03-06T05:46:33;100994.47;;;9.24;100.00
10008;BME280;5043;41.766;26.204;2024-03-06T05:48:59;100999.94;;;9.35;100.00
10008;BME280;5043;41.766;26.204;2024-03-06T05:51:24;100987.88;;;9.31;100.00
10008;BME280;5043;41.766;26.204;2024-03-06T05:53:50;100990.63;;;9.29;100.00
10008;BME280;5043;41.766;26.204;2024-03-06T05:56:17;101018.63;;;9.44;100.00
10008;BME280;5043;41.766;26.204;2024-03-06T05:58:43;101023.63;;;9.49;100.00
10008;BME280;5043;41.766;26.204;2024-03-06T06:01:11;100996.72;;;9.44;100.00
10008;BME280;5043;41.766;26.204;2024-03-06T06:03:36;101016.56;;;9.63;100.00
10008;BME280;5043;41.766;26.204;2024-03-06T06:06:03;100999.78;;;9.64;100.00
10008;BME280;5043;41.766;26.204;2024-03-06T06:08:29;101033.59;;;9.85;100.00
10008;BME280;5043;41.766;26.204;2024-03-06T06:10:54;101018.28;;;9.91;100.00
10008;BME280;5043;41.766;26.204;2024-03-06T06:13:20;101017.56;;;10.02;100.00
10008;BME280;5043;41.766;26.204;2024-03-06T06:15:46;101003.47;;;10.03;100.00
10008;BME280;5043;41.766;26.204;2024-03-06T06:18:12;101024.84;;;10.25;100.00
10008;BME280;5043;41.766;26.204;2024-03-06T06:20:37;100977.66;;;10.08;100.00
10008;BME280;5043;41.766;26.204;2024-03-06T06:23:04;101002.09;;;10.24;100.00
10008;BME280;5043;41.766;26.204;2024-03-06T06:25:29;101023.28;;;10.22;100.00
10008;BME280;5043;41.766;26.204;2024-03-06T06:27:55;101034.59;;;10.10;100.00
10008;BME280;5043;41.766;26.204;2024-03-06T06:30:20;101030.06;;;10.26;100.00
10008;BME280;5043;41.766;26.204;2024-03-06T06:32:46;101026.38;;;10.29;100.00
10008;BME280;5043;41.766;26.204;2024-03-06T06:35:11;101026.25;;;10.30;100.00
10008;BME280;5043;41.766;26.204;2024-03-06T06:37:38;100998.81;;;10.06;100.00
10008;BME280;5043;41.766;26.204;2024-03-06T06:40:07;101031.66;;;10.42;100.00
10008;BME280;5043;41.766;26.204;2024-03-06T06:42:34;101034.44;;;10.53;100.00
10008;BME280;5043;41.766;26.204;2024-03-06T06:44:59;101037.63;;;10.58;100.00
10008;BME280;5043;41.766;26.204;2024-03-06T06:47:26;101024.44;;;10.58;100.00
10008;BME280;5043;41.766;26.204;2024-03-06T06:49:52;101031.41;;;10.59;100.00
10008;BME280;5043;41.766;26.204;2024-03-06T06:52:18;100999.22;;;10.54;100.00
10008;BME280;5043;41.766;26.204;2024-03-06T06:54:44;101029.44;;;10.75;100.00
10008;BME280;5043;41.766;26.204;2024-03-06T06:57:10;101051.19;;;10.91;100.00
10008;BME280;5043;41.766;26.204;2024-03-06T06:59:36;101046.66;;;10.93;100.00
10008;BME280;5043;41.766;26.204;2024-03-06T07:02:03;101053.75;;;11.05;100.00
10008;BME280;5043;41.766;26.204;2024-03-06T07:04:28;101056.41;;;11.18;100.00
10008;BME280;5043;41.766;26.204;2024-03-06T07:06:54;101055.66;;;11.28;100.00
10008;BME280;5043;41.766;26.204;2024-03-06T07:09:20;101055.25;;;11.34;100.00
10008;BME280;5043;41.766;26.204;2024-03-06T07:11:46;101054.59;;;11.43;100.00
10008;BME280;5043;41.766;26.204;2024-03-06T07:14:14;101049.72;;;11.62;100.00
10008;BME280;5043;41.766;26.204;2024-03-06T07:16:43;101054.59;;;11.68;100.00
10008;BME280;5043;41.766;26.204;2024-03-06T07:19:09;101053.09;;;11.77;100.00
10008;BME280;5043;41.766;26.204;2024-03-06T07:21:35;101044.75;;;11.70;100.00
10008;BME280;5043;41.766;26.204;2024-03-06T07:24:01;101057.97;;;11.70;100.00
10008;BME280;5043;41.766;26.204;2024-03-06T07:26:27;101049.03;;;11.84;100.00
10008;BME280;5043;41.766;26.204;2024-03-06T07:28:55;101042.38;;;11.91;100.00
10008;BME280;5043;41.766;26.204;2024-03-06T07:31:21;101053.13;;;12.01;100.00
10008;BME280;5043;41.766;26.204;2024-03-06T07:33:47;101055.91;;;11.87;100.00
10008;BME280;5043;41.766;26.204;2024-03-06T07:36:12;101059.53;;;11.86;100.00
10008;BME280;5043;41.766;26.204;2024-03-06T07:38:38;101066.81;;;11.82;100.00
10008;BME280;5043;41.766;26.204;2024-03-06T07:41:03;101057.03;;;11.71;100.00
10008;BME280;5043;41.766;26.204;2024-03-06T07:43:29;101053.31;;;11.74;100.00
10008;BME280;5043;41.766;26.204;2024-03-06T07:45:55;101058.88;;;11.82;100.00
10008;BME280;5043;41.766;26.204;2024-03-06T07:48:21;101060.06;;;11.91;100.00
10008;BME280;5043;41.766;26.204;2024-03-06T07:50:46;101038.28;;;11.62;100.00
10008;BME280;5043;41.766;26.204;2024-03-06T07:53:12;101069.22;;;11.98;100.00
10008;BME280;5043;41.766;26.204;2024-03-06T07:55:38;101064.44;;;12.03;100.00
10008;BME280;5043;41.766;26.204;2024-03-06T07:58:04;101057.16;;;11.94;100.00
10008;BME280;5043;41.766;26.204;2024-03-06T08:00:30;101063.22;;;12.19;100.00
10008;BME280;5043;41.766;26.204;2024-03-06T08:02:57;101071.47;;;12.15;100.00
10008;BME280;5043;41.766;26.204;2024-03-06T08:05:23;101042.84;;;12.09;100.00
10008;BME280;5043;41.766;26.204;2024-03-06T08:07:49;101080.06;;;12.42;100.00
10008;BME280;5043;41.766;26.204;2024-03-06T08:10:15;101062.50;;;12.41;100.00
10008;BME280;5043;41.766;26.204;2024-03-06T08:12:44;101076.75;;;12.51;100.00
10008;BME280;5043;41.766;26.204;2024-03-06T08:15:12;101063.00;;;12.46;100.00
10008;BME280;5043;41.766;26.204;2024-03-06T08:17:39;101075.59;;;12.66;100.00
10008;BME280;5043;41.766;26.204;2024-03-06T08:20:10;101075.19;;;12.83;99.79
10008;BME280;5043;41.766;26.204;2024-03-06T08:22:41;101082.22;;;12.95;98.71
10008;BME280;5043;41.766;26.204;2024-03-06T08:25:11;101077.31;;;13.13;98.55
10008;BME280;5043;41.766;26.204;2024-03-06T08:27:39;101062.91;;;13.17;97.66
10008;BME280;5043;41.766;26.204;2024-03-06T08:30:07;101088.72;;;13.37;96.08
10008;BME280;5043;41.766;26.204;2024-03-06T08:32:34;101088.00;;;13.46;95.06
10008;BME280;5043;41.766;26.204;2024-03-06T08:35:11;101083.88;;;13.64;94.09
10008;BME280;5043;41.766;26.204;2024-03-06T08:37:38;101079.69;;;13.73;93.70
10008;BME280;5043;41.766;26.204;2024-03-06T08:40:06;101080.91;;;13.80;93.39
10008;BME280;5043;41.766;26.204;2024-03-06T08:42:49;101078.84;;;13.95;93.44
10008;BME280;5043;41.766;26.204;2024-03-06T08:45:19;101082.50;;;14.25;91.83
10008;BME280;5043;41.766;26.204;2024-03-06T08:47:45;101082.63;;;14.35;90.72
10008;BME280;5043;41.766;26.204;2024-03-06T08:50:11;101085.28;;;14.46;91.55
10008;BME280;5043;41.766;26.204;2024-03-06T08:52:38;101093.22;;;14.78;90.82
10008;BME280;5043;41.766;26.204;2024-03-06T08:55:04;101097.78;;;15.07;88.49
10008;BME280;5043;41.766;26.204;2024-03-06T08:57:32;101091.66;;;15.07;87.22
10008;BME280;5043;41.766;26.204;2024-03-06T08:59:58;101094.94;;;15.20;87.06
10008;BME280;5043;41.766;26.204;2024-03-06T09:02:24;101099.53;;;15.39;86.84
10008;BME280;5043;41.766;26.204;2024-03-06T09:04:51;101060.84;;;15.46;85.43
10008;BME280;5043;41.766;26.204;2024-03-06T09:07:17;101090.19;;;15.65;84.07
10008;BME280;5043;41.766;26.204;2024-03-06T09:09:43;101100.31;;;15.80;86.44
10008;BME280;5043;41.766;26.204;2024-03-06T09:12:10;101089.22;;;15.75;83.88
10008;BME280;5043;41.766;26.204;2024-03-06T09:14:37;101080.16;;;15.78;85.49
10008;BME280;5043;41.766;26.204;2024-03-06T09:17:03;101086.50;;;15.87;82.97
10008;BME280;5043;41.766;26.204;2024-03-06T09:19:31;101086.50;;;15.87;80.93
10008;BME280;5043;41.766;26.204;2024-03-06T09:21:57;101067.53;;;16.10;79.89
10008;BME280;5043;41.766;26.204;2024-03-06T09:24:23;101077.78;;;16.24;74.57
10008;BME280;5043;41.766;26.204;2024-03-06T09:26:50;101073.16;;;16.26;74.34
10008;BME280;5043;41.766;26.204;2024-03-06T09:29:17;101080.50;;;16.53;76.11
10008;BME280;5043;41.766;26.204;2024-03-06T09:31:43;101077.72;;;16.64;74.85
10008;BME280;5043;41.766;26.204;2024-03-06T09:34:09;101076.19;;;16.81;73.42
10008;BME280;5043;41.766;26.204;2024-03-06T09:36:41;101075.88;;;16.84;71.57
10008;BME280;5043;41.766;26.204;2024-03-06T09:39:13;101059.34;;;16.90;72.59
10008;BME280;5043;41.766;26.204;2024-03-06T09:41:46;101053.00;;;16.72;72.90
10008;BME280;5043;41.766;26.204;2024-03-06T09:44:12;101068.00;;;17.11;74.29
10008;BME280;5043;41.766;26.204;2024-03-06T09:46:42;101068.28;;;17.08;71.66
10008;BME280;5043;41.766;26.204;2024-03-06T09:49:10;101060.69;;;17.23;74.17
10008;BME280;5043;41.766;26.204;2024-03-06T09:51:37;101069.75;;;17.39;74.95
10008;BME280;5043;41.766;26.204;2024-03-06T09:54:05;101058.38;;;17.83;68.81
10008;BME280;5043;41.766;26.204;2024-03-06T09:56:33;101039.25;;;17.88;66.93
10008;BME280;5043;41.766;26.204;2024-03-06T09:58:58;101039.75;;;18.19;63.35
10008;BME280;5043;41.766;26.204;2024-03-06T10:01:25;101055.22;;;18.42;61.74
10008;BME280;5043;41.766;26.204;2024-03-06T10:03:51;101056.38;;;18.58;60.72
10008;BME280;5043;41.766;26.204;2024-03-06T10:06:17;101060.56;;;18.60;63.02
10008;BME280;5043;41.766;26.204;2024-03-06T10:08:43;101053.78;;;19.09;60.83
10008;BME280;5043;41.766;26.204;2024-03-06T10:11:10;101060.00;;;19.35;56.40
10008;BME280;5043;41.766;26.204;2024-03-06T10:13:36;101047.16;;;19.72;53.66
10008;BME280;5043;41.766;26.204;2024-03-06T10:16:04;101049.59;;;19.58;51.32
10008;BME280;5043;41.766;26.204;2024-03-06T10:18:33;101036.69;;;19.87;52.38
10008;BME280;5043;41.766;26.204;2024-03-06T10:20:59;101041.84;;;19.80;50.08
10008;BME280;5043;41.766;26.204;2024-03-06T10:23:26;101029.22;;;20.15;50.37
10008;BME280;5043;41.766;26.204;2024-03-06T10:25:54;101030.28;;;20.22;48.49
10008;BME280;5043;41.766;26.204;2024-03-06T10:28:21;101019.59;;;20.38;47.11
10008;BME280;5043;41.766;26.204;2024-03-06T10:30:51;101024.81;;;20.39;46.65
10008;BME280;5043;41.766;26.204;2024-03-06T10:33:18;101016.75;;;20.47;45.88
10008;BME280;5043;41.766;26.204;2024-03-06T10:35:47;101011.25;;;20.57;44.71
10008;BME280;5043;41.766;26.204;2024-03-06T10:38:19;101010.38;;;20.97;44.92
10008;BME280;5043;41.766;26.204;2024-03-06T10:40:45;101009.81;;;21.50;44.63
10008;BME280;5043;41.766;26.204;2024-03-06T10:43:12;100998.66;;;20.74;44.66
10008;BME280;5043;41.766;26.204;2024-03-06T10:45:51;101002.13;;;20.18;47.53
10008;BME280;5043;41.766;26.204;2024-03-06T10:48:22;100977.91;;;19.77;47.30
10008;BME280;5043;41.766;26.204;2024-03-06T10:50:49;100993.00;;;19.78;47.58
10008;BME280;5043;41.766;26.204;2024-03-06T10:53:17;100980.84;;;19.58;46.28
10008;BME280;5043;41.766;26.204;2024-03-06T10:55:43;100992.59;;;19.65;48.18
10008;BME280;5043;41.766;26.204;2024-03-06T10:58:10;100975.50;;;19.33;50.06
10008;BME280;5043;41.766;26.204;2024-03-06T11:00:46;100982.59;;;19.08;50.28
10008;BME280;5043;41.766;26.204;2024-03-06T11:03:13;100988.16;;;18.97;51.13
10008;BME280;5043;41.766;26.204;2024-03-06T11:05:40;100977.88;;;18.59;53.23
10008;BME280;5043;41.766;26.204;2024-03-06T11:08:10;100970.94;;;18.48;52.93
10008;BME280;5043;41.766;26.204;2024-03-06T11:10:38;100922.38;;;17.82;53.17
10008;BME280;5043;41.766;26.204;2024-03-06T11:15:50;100985.69;;;17.72;56.64
10008;BME280;5043;41.766;26.204;2024-03-06T11:23:32;100980.47;;;17.70;62.05
10008;BME280;5043;41.766;26.204;2024-03-06T11:28:35;100975.41;;;17.40;63.63
10008;BME280;5043;41.766;26.204;2024-03-06T11:36:21;100972.22;;;18.09;60.54
10008;BME280;5043;41.766;26.204;2024-03-06T11:38:51;100970.69;;;18.06;57.09
10008;BME280;5043;41.766;26.204;2024-03-06T11:41:19;100970.63;;;18.16;58.90
10008;BME280;5043;41.766;26.204;2024-03-06T11:43:45;100970.91;;;17.95;60.07
10008;BME280;5043;41.766;26.204;2024-03-06T11:46:11;100968.81;;;17.89;61.80
10008;BME280;5043;41.766;26.204;2024-03-06T11:48:37;100963.31;;;17.73;60.96
10008;BME280;5043;41.766;26.204;2024-03-06T11:51:04;100956.59;;;17.42;60.18
10008;BME280;5043;41.766;26.204;2024-03-06T11:53:34;100957.53;;;17.23;62.16
10008;BME280;5043;41.766;26.204;2024-03-06T11:56:00;100959.63;;;17.19;63.34
10008;BME280;5043;41.766;26.204;2024-03-06T11:58:26;100966.03;;;16.99;63.54
10008;BME280;5043;41.766;26.204;2024-03-06T12:00:53;100964.59;;;16.95;61.97
10008;BME280;5043;41.766;26.204;2024-03-06T12:03:20;100972.59;;;16.95;63.30
10008;BME280;5043;41.766;26.204;2024-03-06T12:05:46;100968.81;;;16.98;63.08
10008;BME280;5043;41.766;26.204;2024-03-06T12:08:11;100981.00;;;17.00;72.42
10008;BME280;5043;41.766;26.204;2024-03-06T12:10:38;100965.91;;;16.91;75.37
10008;BME280;5043;41.766;26.204;2024-03-06T12:13:04;100976.03;;;16.78;75.74
10008;BME280;5043;41.766;26.204;2024-03-06T12:15:31;100966.75;;;16.92;76.88
10008;BME280;5043;41.766;26.204;2024-03-06T12:17:56;100968.50;;;17.10;74.00
10008;BME280;5043;41.766;26.204;2024-03-06T12:20:24;100972.13;;;17.19;73.94
10008;BME280;5043;41.766;26.204;2024-03-06T12:22:54;100971.66;;;17.24;74.81
10008;BME280;5043;41.766;26.204;2024-03-06T12:25:22;100967.00;;;16.98;72.68
10008;BME280;5043;41.766;26.204;2024-03-06T12:27:49;100971.03;;;17.02;71.56
10008;BME280;5043;41.766;26.204;2024-03-06T12:30:22;100964.16;;;17.09;71.09
10008;BME280;5043;41.766;26.204;2024-03-06T12:32:58;100968.88;;;18.85;62.92
10008;BME280;5043;41.766;26.204;2024-03-06T12:35:26;100969.34;;;21.43;47.74
10008;BME280;5043;41.766;26.204;2024-03-06T12:37:52;100974.50;;;23.34;41.96
10008;BME280;5043;41.766;26.204;2024-03-06T12:40:18;100965.84;;;25.16;37.05
10008;BME280;5043;41.766;26.204;2024-03-06T12:42:44;100972.53;;;25.54;36.53
10008;BME280;5043;41.766;26.204;2024-03-06T12:45:11;100940.00;;;24.51;37.14
10008;BME280;5043;41.766;26.204;2024-03-06T12:47:42;100965.78;;;24.54;37.52
10008;BME280;5043;41.766;26.204;2024-03-06T12:50:09;100968.22;;;24.49;36.83
10008;BME280;5043;41.766;26.204;2024-03-06T12:52:36;100963.91;;;24.12;37.99
10008;BME280;5043;41.766;26.204;2024-03-06T12:55:03;100955.84;;;23.18;40.01
10008;BME280;5043;41.766;26.204;2024-03-06T12:57:31;100964.97;;;22.20;41.78
10008;BME280;5043;41.766;26.204;2024-03-06T12:59:57;100970.00;;;21.53;43.19